createdAt,value
2023-04-23T00:01:05.570Z,10.30
2023-04-23T00:03:36.274Z,10.40
2023-04-23T00:06:06.019Z,10.50
2023-04-23T00:08:34.608Z,10.50
2023-04-23T00:11:02.680Z,11.13
2023-04-23T00:13:29.431Z,11.50
2023-04-23T00:15:55.933Z,11.20
2023-04-23T00:18:22.366Z,11.87
2023-04-23T00:20:48.799Z,12.20
2023-04-23T00:23:15.246Z,12.40
2023-04-23T00:25:41.650Z,13.63
2023-04-23T00:28:08.294Z,13.13
2023-04-23T00:30:34.728Z,13.57
2023-04-23T00:33:01.270Z,14.33
2023-04-23T00:35:27.701Z,14.37
2023-04-23T00:37:54.089Z,14.57
2023-04-23T00:40:20.697Z,15.27
2023-04-23T00:42:48.740Z,15.67
2023-04-23T00:45:15.356Z,16.17
2023-04-23T00:47:41.944Z,15.73
2023-04-23T00:50:08.628Z,17.02
2023-04-23T00:52:36.038Z,17.80
2023-04-23T00:55:12.496Z,17.40
2023-04-23T00:57:39.136Z,17.97
2023-04-23T01:02:32.659Z,18.33
2023-04-23T01:05:00.898Z,19.60
2023-04-23T01:07:27.717Z,19.27
2023-04-23T01:09:54.465Z,19.57
2023-04-23T01:12:20.858Z,20.07
2023-04-23T01:14:47.724Z,20.57
2023-04-23T01:17:14.368Z,20.27
2023-04-23T01:19:41.008Z,20.23
2023-04-23T01:22:10.062Z,20.47
2023-04-23T01:24:36.787Z,19.83
2023-04-23T01:27:03.747Z,21.23
2023-04-23T01:29:30.632Z,21.53
2023-04-23T01:31:57.500Z,21.37
2023-04-23T01:34:23.918Z,20.33
2023-04-23T01:36:51.064Z,20.23
2023-04-23T01:39:17.779Z,19.50
2023-04-23T01:41:44.314Z,20.30
2023-04-23T01:44:10.805Z,19.90
2023-04-23T01:46:37.781Z,20.50
2023-04-23T01:49:04.526Z,19.60
2023-04-23T01:51:31.108Z,19.73
2023-04-23T01:53:57.502Z,19.27
2023-04-23T01:56:26.117Z,18.17
2023-04-23T01:58:52.526Z,19.03
2023-04-23T02:01:18.928Z,19.80
2023-04-23T02:03:46.007Z,18.83
2023-04-23T02:06:12.828Z,18.60
2023-04-23T02:08:39.731Z,19.87
2023-04-23T02:11:09.068Z,20.27
2023-04-23T02:13:35.726Z,19.03
2023-04-23T02:16:02.139Z,18.33
2023-04-23T02:18:28.532Z,17.73
2023-04-23T02:20:54.967Z,17.60
2023-04-23T02:23:21.394Z,16.90
2023-04-23T02:25:47.767Z,16.70
2023-04-23T02:28:14.204Z,17.53
2023-04-23T02:30:45.831Z,17.63
2023-04-23T02:33:12.739Z,17.27
2023-04-23T02:35:39.138Z,17.37
2023-04-23T02:38:05.555Z,18.30
2023-04-23T02:40:31.937Z,17.20
2023-04-23T02:42:58.313Z,16.87
2023-04-23T02:45:24.668Z,18.20
2023-04-23T02:47:53.315Z,17.57
2023-04-23T02:50:19.778Z,16.43
2023-04-23T02:52:47.779Z,15.97
2023-04-23T02:55:14.168Z,17.30
2023-04-23T02:57:40.976Z,17.57
2023-04-23T03:00:08.354Z,17.63
2023-04-23T03:02:35.042Z,16.83
2023-04-23T03:05:01.803Z,17.50
2023-04-23T03:07:28.226Z,19.47
2023-04-23T03:09:54.649Z,17.17
2023-04-23T03:12:21.278Z,18.23
2023-04-23T03:14:47.669Z,18.23
2023-04-23T03:17:14.073Z,17.53
2023-04-23T03:19:40.555Z,17.97
2023-04-23T03:22:07.232Z,18.57
2023-04-23T03:24:34.854Z,18.50
2023-04-23T03:27:01.257Z,19.57
2023-04-23T03:29:28.264Z,20.13
2023-04-23T03:31:54.650Z,19.83
2023-04-23T03:34:21.336Z,18.13
2023-04-23T03:36:48.731Z,18.83
2023-04-23T03:39:15.526Z,18.43
2023-04-23T03:41:42.151Z,19.37
2023-04-23T03:44:08.558Z,17.53
2023-04-23T03:46:35.023Z,18.47
2023-04-23T03:49:01.492Z,16.53
2023-04-23T03:51:28.112Z,16.23
2023-04-23T03:53:54.488Z,16.70
2023-04-23T03:56:21.410Z,15.87
2023-04-23T03:58:47.864Z,15.67
2023-04-23T04:01:14.314Z,15.50
2023-04-23T04:03:41.082Z,16.13
2023-04-23T04:06:07.957Z,17.43
2023-04-23T04:18:20.888Z,18.23
2023-04-23T04:20:47.257Z,18.57
2023-04-23T04:23:13.860Z,18.50
2023-04-23T04:25:40.750Z,19.20
2023-04-23T04:28:11.807Z,19.73
2023-04-23T04:30:39.478Z,19.50
2023-04-23T04:33:06.152Z,19.80
2023-04-23T04:35:32.544Z,19.80
2023-04-23T04:37:59.037Z,20.27
2023-04-23T04:40:26.531Z,20.03
2023-04-23T04:42:52.999Z,20.07
2023-04-23T04:45:19.710Z,20.27
2023-04-23T04:47:46.113Z,20.83
2023-04-23T04:50:12.606Z,20.07
2023-04-23T04:52:39.029Z,19.40
2023-04-23T04:55:07.085Z,20.27
2023-04-23T04:57:33.463Z,20.03
2023-04-23T05:00:03.057Z,19.33
2023-04-23T05:02:29.582Z,20.57
2023-04-23T05:04:56.053Z,19.00
2023-04-23T05:07:22.404Z,19.87
2023-04-23T05:09:48.859Z,20.10
2023-04-23T05:12:15.422Z,20.37
2023-04-23T05:14:41.963Z,19.73
2023-04-23T05:17:08.564Z,20.87
2023-04-23T05:19:34.958Z,21.33
2023-04-23T05:22:03.180Z,22.80
2023-04-23T05:24:29.627Z,23.13
2023-04-23T05:26:56.578Z,21.20
2023-04-23T05:29:23.044Z,22.27
2023-04-23T05:31:49.446Z,22.33
2023-04-23T05:34:16.022Z,21.50
2023-04-23T05:36:42.482Z,22.07
2023-04-23T05:39:09.222Z,21.37
2023-04-23T05:41:35.650Z,20.93
2023-04-23T05:44:02.060Z,22.80
2023-04-23T05:46:28.736Z,21.50
2023-04-23T05:48:55.206Z,20.20
2023-04-23T05:51:22.122Z,21.00
2023-04-23T05:53:48.509Z,21.17
2023-04-23T05:56:14.942Z,21.10
2023-04-23T05:58:41.414Z,21.23
2023-04-23T06:01:07.882Z,21.47
2023-04-23T06:03:34.838Z,20.80
2023-04-23T06:06:01.404Z,20.57
2023-04-23T06:08:28.065Z,20.67
2023-04-23T06:10:56.042Z,20.70
2023-04-23T06:13:22.463Z,19.73
2023-04-23T06:15:49.139Z,21.43
2023-04-23T06:18:15.602Z,21.07
2023-04-23T06:20:42.230Z,21.33
2023-04-23T06:23:08.624Z,21.20
2023-04-23T06:25:34.998Z,20.07
2023-04-23T06:28:01.417Z,20.83
2023-04-23T06:30:27.833Z,20.27
2023-04-23T06:32:54.213Z,19.57
2023-04-23T06:35:20.626Z,20.43
2023-04-23T06:37:46.985Z,21.27
2023-04-23T06:40:13.389Z,19.63
2023-04-23T06:42:39.838Z,21.13
2023-04-23T06:45:07.089Z,20.23
2023-04-23T06:47:33.638Z,21.13
2023-04-23T06:50:00.233Z,20.57
2023-04-23T06:52:27.018Z,21.60
2023-04-23T06:54:53.559Z,22.27
2023-04-23T06:57:19.974Z,22.33
2023-04-23T06:59:46.471Z,22.40
2023-04-23T07:02:12.939Z,22.20
2023-04-23T07:04:39.819Z,21.73
2023-04-23T07:07:07.018Z,21.10
2023-04-23T07:09:33.390Z,21.97
2023-04-23T07:11:59.794Z,20.50
2023-04-23T07:14:26.406Z,21.13
2023-04-23T07:16:54.501Z,20.73
2023-04-23T07:19:20.984Z,22.47
2023-04-23T07:21:47.382Z,23.90
2023-04-23T07:24:13.799Z,24.30
2023-04-23T07:26:40.265Z,25.23
2023-04-23T07:29:07.943Z,25.40
2023-04-23T07:31:34.618Z,25.07
2023-04-23T07:34:01.316Z,24.60
2023-04-23T07:36:28.219Z,23.77
2023-04-23T07:38:54.759Z,24.83
2023-04-23T07:41:21.214Z,23.77
2023-04-23T07:43:47.617Z,23.33
2023-04-23T07:46:14.916Z,23.70
2023-04-23T07:48:41.322Z,24.17
2023-04-23T07:51:08.308Z,22.20
2023-04-23T07:53:35.025Z,22.57
2023-04-23T07:56:01.470Z,21.13
2023-04-23T07:58:27.842Z,21.23
2023-04-23T08:00:54.251Z,22.07
2023-04-23T08:03:21.279Z,20.90
2023-04-23T08:05:48.218Z,23.87
2023-04-23T08:08:14.678Z,23.40
2023-04-23T08:10:41.207Z,22.80
2023-04-23T08:13:11.402Z,24.33
2023-04-23T08:15:38.004Z,22.47
2023-04-23T08:18:04.800Z,22.97
2023-04-23T08:20:32.382Z,21.77
2023-04-23T08:22:59.030Z,21.27
2023-04-23T08:25:25.504Z,20.70
2023-04-23T08:27:52.426Z,21.07
2023-04-23T08:30:18.846Z,18.87
2023-04-23T08:32:49.279Z,20.30
2023-04-23T08:35:15.707Z,17.80
2023-04-23T08:37:42.452Z,18.90
2023-04-23T08:40:09.596Z,19.77
2023-04-23T08:43:19.075Z,20.00
2023-04-23T08:45:49.152Z,18.40
2023-04-23T08:48:15.732Z,16.30
2023-04-23T08:50:43.177Z,18.13
2023-04-23T08:53:10.050Z,18.20
2023-04-23T08:55:36.684Z,18.00
2023-04-23T08:58:06.290Z,19.47
2023-04-23T09:00:34.583Z,18.33
2023-04-23T09:03:01.748Z,18.23
2023-04-23T09:05:28.642Z,16.90
2023-04-23T09:07:56.681Z,13.80
2023-04-23T09:10:23.507Z,13.47
2023-04-23T09:12:49.892Z,14.43
2023-04-23T09:15:17.050Z,14.07
2023-04-23T09:17:45.192Z,13.50
2023-04-23T09:20:13.036Z,13.03
2023-04-23T09:22:47.434Z,13.97
2023-04-23T09:25:17.334Z,14.23
2023-04-23T09:27:44.551Z,12.37
2023-04-23T09:30:11.781Z,12.77
2023-04-23T09:32:41.452Z,13.03
2023-04-23T09:35:10.179Z,11.93
2023-04-23T09:37:37.116Z,12.80
2023-04-23T09:40:09.331Z,11.90
2023-04-23T09:42:36.950Z,11.30
2023-04-23T09:45:08.138Z,12.30
2023-04-23T09:47:35.674Z,11.67
2023-04-23T09:50:02.285Z,12.10
2023-04-23T09:52:31.489Z,11.50
2023-04-23T09:55:01.850Z,11.00
2023-04-23T09:57:28.372Z,11.07
2023-04-23T10:00:11.133Z,10.67
2023-04-23T10:02:49.544Z,11.13
2023-04-23T10:05:24.224Z,9.90
2023-04-23T10:07:56.377Z,10.03
2023-04-23T10:10:23.730Z,9.90
2023-04-23T10:12:55.198Z,9.43
2023-04-23T10:15:23.585Z,9.63
2023-04-23T10:17:51.202Z,10.10
2023-04-23T10:20:18.155Z,10.80
2023-04-23T10:22:45.577Z,10.23
2023-04-23T10:25:13.219Z,11.17
2023-04-23T10:27:53.679Z,10.83
2023-04-23T10:30:22.177Z,10.07
2023-04-23T10:32:49.519Z,9.87
2023-04-23T10:35:16.686Z,11.20
2023-04-23T10:37:44.870Z,10.70
2023-04-23T10:40:14.185Z,10.17
2023-04-23T10:42:41.604Z,12.07
2023-04-23T10:47:48.323Z,11.83
2023-04-23T10:50:29.368Z,12.63
2023-04-23T10:52:57.625Z,12.80
2023-04-23T10:55:26.698Z,13.13
2023-04-23T10:58:07.504Z,11.37
2023-04-23T11:00:43.230Z,12.20
2023-04-23T11:03:44.496Z,13.67
2023-04-23T11:06:21.974Z,12.30
2023-04-23T11:08:58.560Z,13.40
2023-04-23T11:11:39.973Z,13.07
2023-04-23T11:14:16.095Z,12.83
2023-04-23T11:16:44.304Z,14.03
2023-04-23T11:19:12.416Z,11.83
2023-04-23T11:22:02.092Z,11.27
2023-04-23T11:24:30.888Z,12.43
2023-04-23T11:26:58.061Z,12.40
2023-04-23T11:29:26.505Z,13.00
2023-04-23T11:32:02.693Z,11.90
2023-04-23T11:34:30.364Z,12.63
2023-04-23T11:36:58.989Z,12.83
2023-04-23T11:39:25.838Z,12.77
2023-04-23T11:41:53.536Z,12.97
2023-04-23T11:44:21.257Z,11.50
2023-04-23T11:46:49.385Z,10.80
2023-04-23T11:49:17.117Z,10.57
2023-04-23T11:51:44.560Z,10.17
2023-04-23T11:54:12.122Z,9.37
2023-04-23T11:56:38.642Z,10.53
2023-04-23T11:59:05.758Z,9.97
2023-04-23T12:01:53.554Z,9.63
2023-04-23T12:04:21.860Z,7.90
2023-04-23T12:06:50.037Z,9.20
2023-04-23T12:09:17.879Z,9.33
2023-04-23T12:11:45.599Z,8.63
2023-04-23T12:14:14.196Z,8.07
2023-04-23T12:16:45.756Z,8.27
2023-04-23T12:19:16.818Z,7.23
2023-04-23T12:21:57.091Z,8.10
2023-04-23T12:24:31.929Z,7.53
2023-04-23T12:27:01.138Z,7.33
2023-04-23T12:29:30.654Z,7.53
2023-04-23T12:31:59.414Z,7.40
2023-04-23T12:34:25.987Z,7.13
2023-04-23T12:36:54.834Z,7.47
2023-04-23T12:39:32.017Z,7.23
2023-04-23T12:42:02.828Z,7.57
2023-04-23T12:44:29.538Z,6.43
2023-04-23T12:46:58.138Z,6.77
2023-04-23T12:49:27.347Z,7.30
2023-04-23T12:51:57.436Z,7.47
2023-04-23T12:54:25.641Z,7.00
2023-04-23T12:56:52.393Z,6.67
2023-04-23T12:59:18.837Z,5.53
2023-04-23T13:01:45.628Z,5.73
2023-04-23T13:04:12.141Z,4.90
2023-04-23T13:06:38.636Z,4.50
2023-04-23T13:09:05.365Z,4.30
2023-04-23T13:11:32.722Z,3.60
2023-04-23T13:13:59.176Z,3.80
2023-04-23T13:16:25.822Z,4.30
2023-04-23T13:18:52.298Z,5.07
2023-04-23T13:21:19.204Z,4.27
2023-04-23T13:23:45.790Z,4.60
2023-04-23T13:26:12.376Z,4.70
2023-04-23T13:28:38.936Z,4.70
2023-04-23T13:31:06.426Z,4.37
2023-04-23T13:33:33.057Z,4.60
2023-04-23T13:36:01.157Z,4.30
2023-04-23T13:38:28.306Z,4.73
2023-04-23T13:40:54.754Z,4.70
2023-04-23T13:43:21.226Z,4.70
2023-04-23T13:45:48.038Z,4.87
2023-04-23T13:48:15.101Z,4.13
2023-04-23T13:50:42.302Z,4.63
2023-04-23T13:53:09.730Z,4.20
2023-04-23T13:55:36.736Z,4.53
2023-04-23T13:58:04.105Z,4.73
2023-04-23T14:00:31.080Z,4.93
2023-04-23T14:02:57.740Z,4.13
2023-04-23T14:05:24.239Z,4.73
2023-04-23T14:07:50.864Z,5.07
2023-04-23T14:10:17.739Z,4.40
2023-04-23T14:12:45.825Z,4.07
2023-04-23T14:15:12.482Z,4.00
2023-04-23T14:17:40.524Z,4.07
2023-04-23T14:20:07.684Z,4.37
2023-04-23T14:22:34.250Z,4.13
2023-04-23T14:25:08.907Z,4.40
2023-04-23T14:27:50.451Z,4.00
2023-04-23T14:30:19.866Z,4.07
2023-04-23T14:32:49.397Z,4.00
2023-04-23T14:35:16.779Z,3.93
2023-04-23T14:37:45.358Z,3.83
2023-04-23T14:40:15.740Z,4.40
2023-04-23T14:42:42.139Z,3.90
2023-04-23T14:45:09.038Z,3.73
2023-04-23T14:47:35.490Z,3.90
2023-04-23T14:50:02.009Z,3.67
2023-04-23T14:52:28.549Z,3.70
2023-04-23T14:54:55.884Z,4.30
2023-04-23T14:57:22.635Z,4.50
2023-04-23T14:59:49.027Z,4.40
2023-04-23T15:02:15.600Z,4.80
2023-04-23T15:04:42.103Z,5.30
2023-04-23T15:07:08.519Z,5.40
2023-04-23T15:09:34.970Z,7.13
2023-04-23T15:12:04.094Z,8.10
2023-04-23T15:14:37.471Z,9.50
2023-04-23T15:17:04.205Z,9.80
2023-04-23T15:19:31.255Z,8.47
2023-04-23T15:21:57.694Z,7.53
2023-04-23T15:24:24.138Z,7.23
2023-04-23T15:26:53.228Z,7.77
2023-04-23T15:29:20.070Z,7.90
2023-04-23T15:31:46.583Z,9.93
2023-04-23T15:34:13.152Z,10.17
2023-04-23T15:36:39.702Z,8.03
2023-04-23T15:39:07.477Z,7.77
2023-04-23T15:41:37.060Z,7.90
2023-04-23T15:44:05.049Z,8.50
2023-04-23T15:46:31.475Z,9.10
2023-04-23T15:48:57.840Z,7.80
2023-04-23T15:51:24.233Z,8.40
2023-04-23T15:53:51.456Z,8.70
2023-04-23T15:56:17.901Z,9.70
2023-04-23T15:58:44.259Z,7.33
2023-04-23T16:01:11.762Z,6.87
2023-04-23T16:03:38.324Z,6.93
2023-04-23T16:06:05.149Z,6.73
2023-04-23T16:08:32.238Z,6.70
2023-04-23T16:10:59.329Z,8.07
2023-04-23T16:13:27.397Z,6.93
2023-04-23T16:15:53.878Z,7.93
2023-04-23T16:18:20.566Z,7.77
2023-04-23T16:20:47.228Z,7.53
2023-04-23T16:23:14.426Z,7.00
2023-04-23T16:25:41.323Z,7.67
2023-04-23T16:28:07.730Z,7.17
2023-04-23T16:30:34.290Z,6.67
2023-04-23T16:33:00.729Z,7.13
2023-04-23T16:35:27.298Z,6.90
2023-04-23T16:37:53.845Z,6.53
2023-04-23T16:40:21.428Z,7.50
2023-04-23T16:42:48.817Z,7.53
2023-04-23T16:45:15.585Z,7.63
2023-04-23T16:47:43.868Z,7.13
2023-04-23T16:50:10.926Z,6.83
2023-04-23T16:52:37.356Z,7.57
2023-04-23T16:55:04.711Z,7.70
2023-04-23T16:57:31.551Z,8.00
2023-04-23T16:59:58.049Z,7.83
2023-04-23T17:02:24.648Z,7.90
2023-04-23T17:04:51.365Z,2.40
2023-04-23T17:07:17.936Z,1.83
2023-04-23T17:09:44.386Z,1.50
2023-04-23T17:12:11.061Z,1.70
2023-04-23T17:14:37.445Z,1.60
2023-04-23T17:17:03.894Z,1.40
2023-04-23T17:19:30.400Z,1.20
2023-04-23T17:21:56.860Z,1.17
2023-04-23T17:24:23.411Z,1.53
2023-04-23T17:26:49.965Z,1.13
2023-04-23T17:29:16.495Z,1.30
2023-04-23T17:31:43.199Z,1.60
2023-04-23T17:34:09.601Z,1.40
2023-04-23T17:36:36.020Z,1.40
2023-04-23T17:39:02.981Z,1.60
2023-04-23T17:41:30.007Z,1.70
2023-04-23T17:43:56.388Z,1.80
2023-04-23T17:46:22.852Z,1.53
2023-04-23T17:48:49.356Z,1.67
2023-04-23T17:51:15.966Z,1.40
2023-04-23T17:53:42.612Z,1.90
2023-04-23T17:56:09.160Z,2.17
2023-04-23T17:58:36.126Z,2.07
2023-04-23T18:01:04.723Z,2.03
2023-04-23T18:03:32.180Z,2.50
2023-04-23T18:05:58.886Z,2.20
2023-04-23T18:08:25.430Z,2.33
2023-04-23T18:10:51.916Z,2.20
2023-04-23T18:13:18.365Z,2.47
2023-04-23T18:15:49.655Z,2.60
2023-04-23T18:18:17.128Z,2.50
2023-04-23T18:20:44.248Z,2.00
2023-04-23T18:23:11.673Z,1.80
2023-04-23T18:25:38.333Z,2.30
2023-04-23T18:28:04.996Z,2.43
2023-04-23T18:30:31.423Z,2.40
2023-04-23T18:33:26.118Z,2.23
2023-04-23T18:35:55.925Z,2.00
2023-04-23T18:38:31.857Z,2.00
2023-04-23T18:41:02.627Z,1.60
2023-04-23T18:43:29.174Z,2.20
2023-04-23T18:45:55.965Z,1.90
2023-04-23T18:48:34.513Z,1.90
2023-04-23T18:51:33.137Z,1.53
